Time;durP1;ratioP1;P1;durP2;ratioP2;P2;SDS_P1;SDS_P2;PMS_P1;PMS_P2;Temp;Humidity;BMP_temperature;BMP_pressure;BME280_temperature;BME280_humidity;BME280_pressure;Samples;Min_cycle;Max_cycle;Signal;HPM_P1;HPM_P2
2023/01/12 00:01:26;;;;;;;9.65;6.25;;;;;;;5.77;100.00;100708.31;5031471;28;20592;-73
2023/01/12 00:03:56;;;;;;;10.77;6.07;;;;;;;5.71;100.00;100710.88;5032330;28;20205;-72
2023/01/12 00:06:26;;;;;;;14.30;7.80;;;;;;;5.81;100.00;100708.81;5031555;28;20245;-73
2023/01/12 00:08:55;;;;;;;11.38;6.65;;;;;;;5.70;100.00;100712.72;5029977;28;20206;-74
2023/01/12 00:11:24;;;;;;;10.20;5.38;;;;;;;5.74;100.00;100705.97;5044507;28;20243;-72
2023/01/12 00:13:55;;;;;;;13.27;7.38;;;;;;;5.83;100.00;100714.81;5031382;28;20622;-75
2023/01/12 00:16:34;;;;;;;12.60;8.40;;;;;;;5.74;100.00;100713.19;5019169;28;20214;-73
2023/01/12 00:19:09;;;;;;;13.80;7.32;;;;;;;5.74;100.00;100716.72;5047741;28;20237;-72
2023/01/12 00:21:48;;;;;;;13.30;6.70;;;;;;;5.84;100.00;100716.50;5030833;28;20227;-73
2023/01/12 00:24:21;;;;;;;13.38;7.78;;;;;;;5.94;100.00;100719.84;5030916;28;20197;-73
2023/01/12 00:26:50;;;;;;;14.15;6.38;;;;;;;5.99;100.00;100704.88;5042812;28;20197;-72
2023/01/12 00:29:21;;;;;;;8.30;5.28;;;;;;;6.02;100.00;100706.34;5030912;28;20202;-73
2023/01/12 00:31:52;;;;;;;15.32;8.43;;;;;;;5.93;100.00;100696.69;5027984;28;20505;-73
2023/01/12 00:34:21;;;;;;;8.93;6.30;;;;;;;5.96;100.00;100701.69;5032056;28;20198;-74
2023/01/12 00:36:51;;;;;;;11.75;5.82;;;;;;;5.98;100.00;100689.78;5018576;28;20204;-74
2023/01/12 00:39:21;;;;;;;10.00;5.90;;;;;;;5.97;100.00;100687.25;5026523;28;20206;-73
2023/01/12 00:47:25;;;;;;;8.10;5.50;;;;;;;5.96;100.00;100688.25;5033399;28;20193;-73
2023/01/12 00:49:55;;;;;;;7.90;5.80;;;;;;;5.94;100.00;100691.16;5036311;28;20211;-74
2023/01/12 00:52:24;;;;;;;13.07;5.20;;;;;;;5.95;100.00;100683.91;5031493;28;20569;-73
2023/01/12 00:54:59;;;;;;;10.68;5.38;;;;;;;6.00;100.00;100689.59;5039690;28;20213;-73
2023/01/12 00:57:28;;;;;;;11.30;5.28;;;;;;;6.02;100.00;100679.50;5043510;28;20197;-72
2023/01/12 00:59:59;;;;;;;17.42;4.82;;;;;;;5.97;100.00;100684.56;5030711;28;20292;-74
2023/01/12 01:02:29;;;;;;;15.18;5.43;;;;;;;6.01;100.00;100664.38;5030128;28;20206;-71
2023/01/12 01:04:58;;;;;;;6.53;4.45;;;;;;;5.90;100.00;100662.97;5027714;28;20245;-73
2023/01/12 01:07:27;;;;;;;9.20;4.60;;;;;;;5.99;100.00;100666.44;5030262;28;20225;-72
2023/01/12 01:09:57;;;;;;;5.93;4.00;;;;;;;5.83;100.00;100674.56;5044907;28;20248;-74
2023/01/12 01:12:26;;;;;;;4.82;4.35;;;;;;;5.98;100.00;100678.19;5033571;28;20209;-73
2023/01/12 01:14:55;;;;;;;11.13;4.22;;;;;;;6.00;100.00;100682.34;5029639;28;20213;-72
2023/01/12 01:17:27;;;;;;;11.80;4.65;;;;;;;5.93;100.00;100681.41;5050599;28;20190;-72
2023/01/12 01:19:57;;;;;;;4.22;3.83;;;;;;;5.94;100.00;100679.56;5042881;28;20205;-74
2023/01/12 01:22:26;;;;;;;9.32;3.58;;;;;;;5.90;100.00;100671.03;5034785;28;20198;-73
2023/01/12 01:24:55;;;;;;;21.05;5.35;;;;;;;5.98;100.00;100681.72;5025969;28;20271;-72
2023/01/12 01:27:25;;;;;;;6.40;3.88;;;;;;;5.92;100.00;100678.88;5033518;28;20664;-74
2023/01/12 01:29:54;;;;;;;7.35;4.35;;;;;;;5.96;100.00;100670.28;5033857;28;20232;-73
2023/01/12 01:32:25;;;;;;;6.05;3.53;;;;;;;5.92;100.00;100658.25;5033885;28;20281;-73
2023/01/12 01:34:54;;;;;;;12.32;4.55;;;;;;;5.92;100.00;100652.88;5033480;28;20217;-73
2023/01/12 01:37:23;;;;;;;10.63;3.72;;;;;;;5.97;100.00;100641.59;5031199;28;20193;-71
2023/01/12 01:39:53;;;;;;;7.10;3.53;;;;;;;6.02;100.00;100636.53;5039510;28;20467;-75
2023/01/12 01:42:27;;;;;;;8.57;3.42;;;;;;;6.09;100.00;100640.19;5035655;28;20214;-71
2023/01/12 01:45:06;;;;;;;7.72;2.78;;;;;;;6.09;100.00;100643.69;5031778;28;20221;-72
2023/01/12 01:47:41;;;;;;;7.05;3.53;;;;;;;6.22;99.65;100651.16;5038101;28;20647;-74
2023/01/12 01:50:17;;;;;;;8.98;3.63;;;;;;;6.31;99.45;100642.00;5033355;28;20197;-75
2023/01/12 01:52:51;;;;;;;8.75;3.92;;;;;;;6.40;98.29;100646.28;5032143;28;20239;-73
2023/01/12 01:55:23;;;;;;;5.93;2.85;;;;;;;6.38;97.79;100648.34;5033096;28;20213;-71
2023/01/12 01:57:58;;;;;;;7.50;2.50;;;;;;;6.52;97.24;100642.16;5034472;28;20697;-72
2023/01/12 02:00:28;;;;;;;8.48;3.00;;;;;;;6.47;96.35;100647.25;5052930;28;20540;-73
2023/01/12 02:03:02;;;;;;;7.80;3.15;;;;;;;6.41;96.70;100645.28;5046009;28;20216;-74
2023/01/12 02:05:31;;;;;;;7.50;3.30;;;;;;;6.57;96.22;100641.63;5034802;28;20230;-73
2023/01/12 02:08:07;;;;;;;6.63;2.13;;;;;;;6.51;96.21;100629.72;5026464;28;20257;-71
2023/01/12 02:10:38;;;;;;;5.38;2.60;;;;;;;6.50;96.67;100625.38;5032404;28;20229;-73
2023/01/12 02:16:20;;;;;;;15.15;4.90;;;;;;;6.63;95.93;100613.16;5028415;28;20235;-72
2023/01/12 02:19:16;;;;;;;6.30;2.50;;;;;;;6.59;95.41;100611.84;5034504;28;20647;-73
2023/01/12 02:22:16;;;;;;;6.05;2.25;;;;;;;6.60;95.37;100608.97;5044957;28;20237;-76
2023/01/12 02:25:33;;;;;;;8.63;2.50;;;;;;;6.67;95.22;100611.78;5034995;28;20244;-76
2023/01/12 02:28:25;;;;;;;8.45;3.70;;;;;;;6.66;95.39;100602.03;5029492;28;20584;-75
2023/01/12 02:31:23;;;;;;;5.22;2.55;;;;;;;6.76;94.69;100597.22;5032186;28;20513;-74
2023/01/12 02:34:02;;;;;;;5.75;2.20;;;;;;;6.65;95.28;100600.34;5032659;28;20197;-74
2023/01/12 02:36:44;;;;;;;14.55;2.00;;;;;;;6.68;95.98;100602.69;5046996;28;20227;-74
2023/01/12 02:39:21;;;;;;;6.70;2.33;;;;;;;6.57;96.56;100597.75;5030836;28;20615;-75
2023/01/12 02:44:54;;;;;;;11.13;3.05;;;;;;;6.63;96.57;100589.81;5031306;28;20339;-74
2023/01/12 02:47:34;;;;;;;2.90;1.73;;;;;;;6.56;96.46;100588.84;5033129;28;20287;-72
2023/01/12 02:50:08;;;;;;;8.55;2.42;;;;;;;6.55;97.04;100588.03;5027974;28;20232;-75
2023/01/12 02:52:40;;;;;;;4.50;1.92;;;;;;;6.57;97.20;100577.09;5033305;28;20193;-74
2023/01/12 02:55:12;;;;;;;4.97;2.13;;;;;;;6.60;97.13;100573.19;5035212;28;20271;-74
2023/01/12 02:57:42;;;;;;;5.80;2.00;;;;;;;6.61;97.60;100574.88;5038288;28;20202;-73
2023/01/12 03:00:16;;;;;;;6.72;2.83;;;;;;;6.59;97.84;100568.81;5027300;28;20579;-73
2023/01/12 03:02:46;;;;;;;16.13;2.67;;;;;;;6.59;97.67;100571.50;5030138;28;20241;-73
2023/01/12 03:05:15;;;;;;;5.40;1.73;;;;;;;6.53;97.71;100559.66;5032890;28;20255;-73
2023/01/12 03:07:52;;;;;;;6.45;2.85;;;;;;;6.54;97.57;100570.22;5031861;28;20197;-74
2023/01/12 03:10:42;;;;;;;9.60;3.25;;;;;;;6.55;98.02;100571.88;5028384;28;20698;-74
2023/01/12 03:13:15;;;;;;;7.50;1.90;;;;;;;6.55;97.96;100571.88;5031779;28;20196;-74
2023/01/12 03:15:49;;;;;;;3.78;2.45;;;;;;;6.56;97.11;100570.03;5031825;28;20307;-72
2023/01/12 03:18:28;;;;;;;4.07;1.88;;;;;;;6.60;97.72;100563.28;5036943;28;20570;-75
2023/01/12 03:21:27;;;;;;;5.75;2.50;;;;;;;6.66;97.13;100561.69;5044870;28;20621;-73
2023/01/12 03:24:03;;;;;;;5.72;1.40;;;;;;;6.65;96.70;100562.72;5044188;28;20201;-74
2023/01/12 03:26:36;;;;;;;5.93;2.58;;;;;;;6.61;96.77;100554.19;5027381;28;20696;-73
2023/01/12 03:29:09;;;;;;;14.20;3.25;;;;;;;6.68;97.05;100557.78;5030194;28;20209;-72
2023/01/12 03:31:39;;;;;;;6.25;1.88;;;;;;;6.58;96.63;100551.03;5030736;28;20196;-71
2023/01/12 03:34:10;;;;;;;8.05;2.05;;;;;;;6.57;96.77;100549.38;5032587;28;20193;-73
2023/01/12 03:36:48;;;;;;;7.70;2.70;;;;;;;6.67;97.02;100549.94;5030820;28;20284;-73
2023/01/12 03:39:25;;;;;;;3.50;1.48;;;;;;;6.67;96.33;100549.94;5026832;28;20212;-72
2023/01/12 03:42:02;;;;;;;4.90;2.25;;;;;;;6.64;96.10;100555.66;5032284;28;20289;-73
2023/01/12 03:44:40;;;;;;;12.82;2.30;;;;;;;6.66;96.03;100559.00;5047776;28;20251;-73
2023/01/12 03:47:15;;;;;;;11.95;2.03;;;;;;;6.68;95.04;100551.63;5045040;28;20495;-73
2023/01/12 03:49:51;;;;;;;9.10;1.90;;;;;;;6.80;94.89;100555.50;5031267;28;20197;-74
2023/01/12 03:52:22;;;;;;;9.38;3.15;;;;;;;6.77;95.04;100553.19;5031532;28;20208;-73
2023/01/12 03:54:55;;;;;;;12.30;2.30;;;;;;;6.80;95.18;100555.50;5043098;28;20218;-73
2023/01/12 03:57:25;;;;;;;9.57;2.63;;;;;;;6.86;94.13;100549.38;5039319;28;20197;-73
2023/01/12 03:59:56;;;;;;;6.80;2.78;;;;;;;6.83;94.35;100555.09;5032918;28;20251;-74
2023/01/12 04:02:25;;;;;;;4.30;2.05;;;;;;;6.86;94.06;100554.75;5032750;28;20233;-74
2023/01/12 04:04:57;;;;;;;3.30;1.85;;;;;;;6.85;93.73;100550.38;5043919;28;20232;-74
2023/01/12 04:07:26;;;;;;;5.10;1.83;;;;;;;6.94;93.12;100551.94;5026179;28;20265;-73
2023/01/12 04:09:55;;;;;;;9.55;2.38;;;;;;;6.96;92.64;100545.38;5032181;28;20185;-73
2023/01/12 04:12:24;;;;;;;4.38;2.55;;;;;;;6.91;92.65;100547.78;5031203;28;20307;-72
2023/01/12 04:14:53;;;;;;;7.07;2.13;;;;;;;6.96;92.33;100539.16;5034875;28;20219;-73
2023/01/12 04:17:24;;;;;;;9.13;1.83;;;;;;;7.01;92.66;100542.13;5031189;28;20292;-74
2023/01/12 04:19:54;;;;;;;2.58;1.70;;;;;;;6.93;92.23;100524.22;5034927;28;20733;-72
2023/01/12 04:25:11;;;;;;;5.05;2.42;;;;;;;7.02;91.90;100521.44;5017940;28;20692;-73
2023/01/12 04:27:45;;;;;;;3.45;1.75;;;;;;;6.98;92.18;100529.88;5030539;28;20661;-71
2023/01/12 04:30:15;;;;;;;5.88;1.75;;;;;;;6.96;92.37;100523.03;5031847;28;20664;-74
2023/01/12 04:32:45;;;;;;;4.03;1.65;;;;;;;7.01;92.14;100522.47;5029747;28;20284;-73
2023/01/12 04:35:16;;;;;;;5.95;1.83;;;;;;;6.98;92.10;100513.72;5030608;28;20689;-73
2023/01/12 04:37:45;;;;;;;5.53;2.45;;;;;;;7.05;91.56;100511.13;5028226;28;20197;-74
2023/01/12 04:40:16;;;;;;;9.50;2.17;;;;;;;7.21;91.57;100505.50;5036529;28;20579;-73
2023/01/12 04:43:03;;;;;;;5.57;1.98;;;;;;;7.21;91.61;100502.81;5036643;28;20207;-74
2023/01/12 04:45:37;;;;;;;7.13;1.58;;;;;;;7.11;91.63;100493.41;5044241;28;20256;-75
2023/01/12 04:48:08;;;;;;;6.22;1.70;;;;;;;7.16;90.96;100496.34;5044129;28;20205;-73
2023/01/12 04:50:40;;;;;;;7.13;1.92;;;;;;;7.15;91.33;100500.91;5054548;28;20198;-75
2023/01/12 04:53:11;;;;;;;8.52;2.17;;;;;;;7.20;90.72;100493.09;5060930;28;20205;-74
2023/01/12 04:55:42;;;;;;;3.40;1.30;;;;;;;7.14;90.60;100493.84;5048125;28;20597;-73
2023/01/12 04:58:11;;;;;;;4.80;2.00;;;;;;;7.15;90.57;100495.53;5035529;28;20216;-74
2023/01/12 05:00:40;;;;;;;4.63;2.05;;;;;;;7.18;90.33;100492.44;5062632;28;20205;-74
2023/01/12 05:03:12;;;;;;;10.02;1.50;;;;;;;7.32;90.04;100488.88;5042967;28;20239;-74
2023/01/12 05:05:42;;;;;;;6.75;2.13;;;;;;;7.36;89.48;100489.31;5035119;28;20236;-74
2023/01/12 05:11:00;;;;;;;5.97;1.67;;;;;;;7.31;89.41;100489.88;5034332;28;20224;-74
2023/01/12 05:13:31;;;;;;;8.52;2.25;;;;;;;7.34;89.70;100486.00;5034052;28;20551;-73
2023/01/12 05:16:09;;;;;;;7.95;1.67;;;;;;;7.35;88.58;100477.75;5042419;28;20249;-73
2023/01/12 05:18:38;;;;;;;4.55;1.63;;;;;;;7.27;88.86;100477.00;5026041;28;20198;-72
2023/01/12 05:21:09;;;;;;;4.60;1.55;;;;;;;7.20;89.11;100474.25;5034330;28;20194;-73
2023/01/12 05:23:41;;;;;;;11.82;2.13;;;;;;;7.18;89.53;100465.53;5034131;28;20292;-73
2023/01/12 05:26:11;;;;;;;4.20;1.35;;;;;;;7.19;89.67;100469.91;5025283;28;20308;-73
2023/01/12 05:28:40;;;;;;;7.05;2.30;;;;;;;7.23;89.74;100471.19;5035183;28;20224;-74
2023/01/12 05:31:12;;;;;;;8.70;2.17;;;;;;;7.25;89.38;100471.84;5030673;28;20207;-73
2023/01/12 05:33:42;;;;;;;5.95;2.03;;;;;;;7.39;88.80;100475.50;5034465;28;20190;-73
2023/01/12 05:36:15;;;;;;;3.40;1.45;;;;;;;7.48;88.12;100468.13;5033675;28;20231;-75
2023/01/12 05:38:44;;;;;;;7.85;1.55;;;;;;;7.54;88.42;100468.19;5033798;28;20198;-72
2023/01/12 05:41:14;;;;;;;5.38;1.98;;;;;;;7.52;87.74;100458.63;5033819;28;20757;-74
2023/01/12 05:43:51;;;;;;;4.90;1.60;;;;;;;7.54;87.36;100467.34;5050347;28;20213;-72
2023/01/12 05:46:23;;;;;;;3.33;2.08;;;;;;;7.62;87.23;100469.91;5049131;28;20312;-73
2023/01/12 05:48:54;;;;;;;8.80;3.08;;;;;;;7.57;87.39;100458.88;5038057;28;20668;-73
2023/01/12 05:51:26;;;;;;;6.95;2.40;;;;;;;7.63;87.47;100460.81;5034761;28;20277;-73
2023/01/12 05:53:55;;;;;;;2.78;1.13;;;;;;;7.65;86.82;100458.75;5029288;28;20184;-73
2023/01/12 05:56:26;;;;;;;12.32;2.35;;;;;;;7.67;86.71;100456.69;5030071;28;20232;-73
2023/01/12 05:58:57;;;;;;;4.00;1.30;;;;;;;7.63;86.86;100445.47;5048228;28;20213;-74
2023/01/12 06:01:27;;;;;;;8.00;1.80;;;;;;;7.74;86.86;100465.69;5036312;28;20284;-74
2023/01/12 06:03:59;;;;;;;5.05;1.27;;;;;;;7.77;86.89;100462.59;5034044;28;20312;-73
2023/01/12 06:06:31;;;;;;;4.95;2.38;;;;;;;7.70;86.60;100461.69;5034812;28;20213;-74
2023/01/12 06:09:01;;;;;;;7.28;1.67;;;;;;;7.66;86.90;100465.78;5037643;28;20317;-73
2023/01/12 06:14:18;;;;;;;6.60;2.38;;;;;;;7.83;86.31;100459.97;5031536;28;20574;-74
2023/01/12 06:16:47;;;;;;;3.28;1.60;;;;;;;7.72;86.34;100459.63;5042991;28;20296;-73
2023/01/12 06:19:16;;;;;;;5.70;2.15;;;;;;;7.71;86.65;100460.66;5036825;28;20630;-72
2023/01/12 06:21:46;;;;;;;7.00;2.00;;;;;;;7.60;87.03;100458.50;5036175;28;20193;-73
2023/01/12 06:24:15;;;;;;;6.80;2.25;;;;;;;7.58;87.17;100457.84;5042193;28;20291;-74
2023/01/12 06:26:47;;;;;;;3.47;1.65;;;;;;;7.52;87.32;100455.94;5033628;28;20193;-72
2023/01/12 06:29:17;;;;;;;4.70;1.75;;;;;;;7.62;87.17;100459.13;5033352;28;20209;-75
2023/01/12 06:31:46;;;;;;;7.70;2.22;;;;;;;7.61;86.93;100469.06;5021927;28;20278;-73
2023/01/12 06:34:15;;;;;;;5.07;1.83;;;;;;;7.70;86.61;100464.38;5036210;28;20191;-73
2023/01/12 06:36:45;;;;;;;5.78;2.45;;;;;;;7.66;86.58;100463.94;5032999;28;20205;-73
2023/01/12 06:39:15;;;;;;;3.35;2.05;;;;;;;7.73;86.32;100451.38;5034369;28;20225;-72
2023/01/12 06:44:30;;;;;;;12.73;1.98;;;;;;;7.78;85.79;100448.09;5038321;28;21674;-74
2023/01/12 06:47:01;;;;;;;7.78;1.90;;;;;;;7.77;85.77;100443.72;5032251;28;20198;-74
2023/01/12 06:49:30;;;;;;;9.70;2.13;;;;;;;7.84;85.64;100444.63;5032938;28;20189;-72
2023/01/12 06:52:01;;;;;;;8.95;1.95;;;;;;;7.77;85.95;100441.88;5036945;28;20193;-75
2023/01/12 06:54:30;;;;;;;5.35;2.10;;;;;;;7.79;86.24;100439.81;5036280;28;20217;-73
2023/01/12 06:56:59;;;;;;;5.38;1.83;;;;;;;7.80;85.73;100436.09;5034249;28;20752;-73
2023/01/12 06:59:28;;;;;;;7.82;1.58;;;;;;;7.85;85.82;100432.81;5029900;28;20193;-74
2023/01/12 07:01:58;;;;;;;3.33;1.55;;;;;;;7.77;86.35;100447.25;5033332;28;20196;-74
2023/01/12 07:04:27;;;;;;;6.63;2.10;;;;;;;7.74;86.35;100431.50;5032296;28;20221;-72
2023/01/12 07:06:56;;;;;;;8.60;1.52;;;;;;;7.88;85.80;100437.81;5031565;28;20216;-73
2023/01/12 07:09:27;;;;;;;2.90;1.13;;;;;;;7.88;85.89;100443.22;5032222;28;20189;-72
2023/01/12 07:11:56;;;;;;;6.30;1.70;;;;;;;7.86;85.96;100443.38;5032466;28;20591;-74
2023/01/12 07:14:25;;;;;;;8.30;2.08;;;;;;;7.83;86.16;100440.25;5041073;28;20284;-73
2023/01/12 07:16:54;;;;;;;4.68;1.65;;;;;;;7.84;85.55;100431.16;5036871;28;20221;-73
2023/01/12 07:19:23;;;;;;;6.38;1.63;;;;;;;7.83;85.96;100429.50;5033318;28;20285;-73
2023/01/12 07:21:52;;;;;;;8.27;2.47;;;;;;;7.83;86.21;100421.41;5032185;28;20259;-73
2023/01/12 07:24:21;;;;;;;4.85;1.90;;;;;;;7.75;86.64;100426.91;5031997;28;20223;-74
2023/01/12 07:26:52;;;;;;;9.80;2.95;;;;;;;7.87;86.27;100419.97;5031815;28;20664;-73
2023/01/12 07:29:21;;;;;;;4.10;1.83;;;;;;;7.89;86.23;100417.09;5032514;28;20193;-74
2023/01/12 07:31:51;;;;;;;4.97;1.40;;;;;;;7.95;86.14;100413.59;5034274;28;20308;-74
2023/01/12 07:34:20;;;;;;;6.45;1.83;;;;;;;7.98;85.57;100411.38;5031684;28;20193;-74
2023/01/12 07:36:49;;;;;;;9.68;1.90;;;;;;;8.01;85.52;100408.25;5022081;28;20198;-75
2023/01/12 07:39:18;;;;;;;5.28;2.30;;;;;;;8.00;85.72;100403.91;5049010;28;20200;-74
2023/01/12 07:44:50;;;;;;;2.10;1.20;;;;;;;8.10;85.00;100392.78;4988784;28;20227;-73
2023/01/12 07:47:20;;;;;;;11.50;3.03;;;;;;;8.16;84.99;100394.69;4972001;28;20201;-74
2023/01/12 07:49:49;;;;;;;3.33;1.77;;;;;;;8.18;84.84;100392.63;5001383;28;20584;-74
2023/01/12 07:52:36;;;;;;;6.03;2.05;;;;;;;8.26;84.42;100393.28;5034169;28;20236;-72
2023/01/12 07:55:09;;;;;;;5.07;1.67;;;;;;;8.21;84.89;100384.97;5037309;28;20205;-74
2023/01/12 07:58:00;;;;;;;5.35;1.90;;;;;;;8.28;84.49;100387.69;5023998;28;20212;-73
2023/01/12 08:00:37;;;;;;;10.70;1.98;;;;;;;8.28;84.59;100388.50;5020862;28;20197;-74
2023/01/12 08:03:19;;;;;;;9.02;3.28;;;;;;;8.31;84.41;100381.09;5029449;28;20671;-72
2023/01/12 08:06:05;;;;;;;10.73;1.60;;;;;;;8.36;83.92;100384.03;5028571;28;20235;-73
2023/01/12 08:08:45;;;;;;;6.88;1.83;;;;;;;8.39;84.13;100375.53;5031397;28;20197;-72
2023/01/12 08:11:25;;;;;;;2.85;2.22;;;;;;;8.43;83.87;100371.41;5028705;28;20189;-74
2023/01/12 08:14:01;;;;;;;3.35;1.42;;;;;;;8.44;83.83;100367.69;5034934;28;20197;-74
2023/01/12 08:16:44;;;;;;;9.70;2.42;;;;;;;8.45;83.82;100364.78;5047946;28;20216;-74
2023/01/12 08:19:44;;;;;;;2.22;1.33;;;;;;;8.52;82.85;100362.94;5031005;28;20226;-73
2023/01/12 08:22:27;;;;;;;10.13;2.17;;;;;;;8.51;83.57;100360.47;5026881;28;20204;-72
2023/01/12 08:25:12;;;;;;;8.18;2.10;;;;;;;8.62;82.96;100359.84;5033086;28;20228;-73
2023/01/12 08:27:56;;;;;;;9.13;2.10;;;;;;;8.63;82.64;100366.91;5034927;28;20201;-73
2023/01/12 08:30:45;;;;;;;6.05;2.50;;;;;;;8.67;82.49;100363.63;5032221;28;20197;-72
2023/01/12 08:33:24;;;;;;;7.47;2.15;;;;;;;8.69;82.31;100366.13;5033630;28;20291;-72
2023/01/12 08:36:03;;;;;;;5.75;1.48;;;;;;;8.69;81.87;100355.31;5032624;28;20240;-73
2023/01/12 08:38:45;;;;;;;3.20;1.73;;;;;;;8.68;82.43;100361.75;5031131;28;20207;-73
2023/01/12 08:41:37;;;;;;;2.03;1.70;;;;;;;8.78;81.80;100353.28;5043485;28;20263;-72
2023/01/12 08:44:21;;;;;;;4.85;1.75;;;;;;;8.72;82.00;100344.13;5028413;28;20213;-74
2023/01/12 08:46:59;;;;;;;3.42;1.60;;;;;;;8.83;82.09;100348.94;5031957;28;20200;-72
2023/01/12 08:49:41;;;;;;;6.10;2.00;;;;;;;8.81;81.65;100344.78;5041408;28;20232;-74
2023/01/12 08:52:19;;;;;;;5.40;1.85;;;;;;;8.76;81.58;100340.00;5039122;28;20260;-75
2023/01/12 08:55:03;;;;;;;6.22;3.10;;;;;;;8.78;81.94;100339.78;5041983;28;20642;-73
2023/01/12 08:57:51;;;;;;;4.13;1.75;;;;;;;8.87;81.37;100331.28;5035394;28;20227;-74
2023/01/12 09:00:24;;;;;;;9.65;3.45;;;;;;;8.92;81.07;100325.28;5045535;28;20601;-73
2023/01/12 09:03:07;;;;;;;4.53;2.58;;;;;;;9.02;80.46;100333.81;5028659;28;20247;-73
2023/01/12 09:05:44;;;;;;;3.30;1.40;;;;;;;8.97;80.73;100320.94;5030202;28;20221;-74
2023/01/12 09:08:24;;;;;;;1.95;1.20;;;;;;;9.03;80.19;100316.59;5037557;28;20189;-72
2023/01/12 09:11:11;;;;;;;3.22;1.58;;;;;;;9.08;79.96;100323.03;5036234;28;20624;-72
2023/01/12 09:13:44;;;;;;;16.27;2.00;;;;;;;9.08;80.17;100311.41;5038904;28;20201;-73
2023/01/12 09:16:23;;;;;;;6.07;1.73;;;;;;;9.12;79.94;100313.47;5037987;28;20473;-73
2023/01/12 09:18:59;;;;;;;8.57;2.30;;;;;;;9.15;79.49;100310.34;5034365;28;20189;-73
2023/01/12 09:21:57;;;;;;;3.15;1.23;;;;;;;9.18;79.29;100305.59;5047243;28;20228;-72
2023/01/12 09:24:44;;;;;;;6.90;1.95;;;;;;;9.13;79.31;100304.34;5047025;28;20517;-72
2023/01/12 09:30:22;;;;;;;9.35;2.13;;;;;;;9.29;79.20;100291.47;5030925;28;20276;-71
2023/01/12 09:33:13;;;;;;;4.00;1.43;;;;;;;9.31;78.96;100289.38;5037864;28;20192;-72
2023/01/12 09:35:56;;;;;;;1.87;0.97;;;;;;;9.30;78.58;100276.91;5029761;28;20456;-73
2023/01/12 09:39:06;;;;;;;4.00;1.50;;;;;;;9.32;78.36;100291.06;5035710;28;20424;-73
2023/01/12 09:48:17;;;;;;;2.78;1.30;;;;;;;9.51;77.44;100263.19;4974084;28;20195;-73
2023/01/12 09:51:01;;;;;;;3.97;1.57;;;;;;;9.48;77.57;100255.53;4955262;29;20204;-71
2023/01/12 09:53:42;;;;;;;8.33;1.70;;;;;;;9.50;77.51;100262.38;5020839;28;20940;-71
2023/01/12 10:12:35;;;;;;;6.43;2.03;;;;;;;10.02;74.56;100239.75;6222458;23;20377;-74
2023/01/12 10:15:34;;;;;;;5.27;1.90;;;;;;;9.94;74.84;100234.59;6224266;23;20385;-72
2023/01/12 10:18:15;;;;;;;5.03;1.93;;;;;;;10.08;74.28;100237.25;6222726;23;20834;-73
2023/01/12 10:20:54;;;;;;;6.77;2.00;;;;;;;10.06;74.62;100225.84;6222745;23;20386;-73
2023/01/12 10:23:31;;;;;;;5.57;1.80;;;;;;;10.21;74.09;100232.66;6223432;23;20431;-74
2023/01/12 10:26:14;;;;;;;7.03;1.93;;;;;;;10.19;73.71;100226.63;6225629;23;20380;-74
2023/01/12 10:28:51;;;;;;;5.50;1.60;;;;;;;10.32;73.81;100223.84;6226121;23;20398;-75
2023/01/12 10:31:50;;;;;;;10.50;2.83;;;;;;;10.22;72.99;100219.94;6228927;23;20879;-72
2023/01/12 10:34:44;;;;;;;4.60;1.60;;;;;;;10.17;73.18;100225.16;6227095;23;20485;-74
2023/01/12 10:37:22;;;;;;;11.10;1.70;;;;;;;10.25;73.38;100206.00;6225021;23;20846;-72
2023/01/12 10:40:01;;;;;;;9.03;1.73;;;;;;;10.18;73.63;100222.25;6229571;23;20399;-74
2023/01/12 10:50:45;;;;;;;5.23;1.53;;;;;;;10.13;74.61;100196.88;6228703;23;20414;-75
2023/01/12 10:53:19;;;;;;;2.07;1.67;;;;;;;10.03;75.17;100202.75;6228215;23;20379;-74
2023/01/12 10:56:01;;;;;;;7.53;2.00;;;;;;;10.01;75.81;100194.88;6228711;23;20431;-74
2023/01/12 10:58:58;;;;;;;8.30;2.37;;;;;;;9.92;77.11;100185.31;6231925;23;20193;-73
2023/01/12 11:02:11;;;;;;;4.27;2.20;;;;;;;9.84;78.68;100182.88;6236861;23;20414;-74
2023/01/12 11:04:46;;;;;;;7.80;1.60;;;;;;;9.66;80.25;100163.00;6236299;23;20763;-72
2023/01/12 11:07:24;;;;;;;5.60;2.87;;;;;;;9.60;81.50;100178.19;6235414;23;20381;-73
2023/01/12 11:10:29;;;;;;;3.10;1.50;;;;;;;9.54;81.26;100160.13;6228750;23;20418;-74
2023/01/12 11:13:36;;;;;;;9.77;2.30;;;;;;;9.52;83.03;100157.66;6253900;22;20491;-74
2023/01/12 11:16:21;;;;;;;3.70;1.50;;;;;;;9.43;83.58;100141.91;6226228;23;20449;-75
2023/01/12 11:19:17;;;;;;;4.88;1.30;;;;;;;9.47;84.58;100145.84;6232057;23;20442;-74
2023/01/12 11:22:04;;;;;;;8.40;1.50;;;;;;;9.47;84.86;100153.94;6230344;23;20168;-74
2023/01/12 11:24:57;;;;;;;;;;;;;;;;;;;;;
2023/01/12 11:27:48;;;;;;;4.50;1.70;;;;;;;9.40;86.78;100145.84;6234080;23;20490;-73
2023/01/12 11:30:28;;;;;;;8.73;2.10;;;;;;;9.40;86.80;100139.59;6259602;23;20441;-73
2023/01/12 11:33:11;;;;;;;7.17;1.70;;;;;;;9.49;86.20;100131.06;6230999;23;20936;-73
2023/01/12 11:36:03;;;;;;;4.60;1.93;;;;;;;9.41;87.62;100143.97;6256253;23;20413;-74
2023/01/12 11:38:41;;;;;;;7.38;2.30;;;;;;;9.29;88.07;100129.50;6232102;23;20459;-73
2023/01/12 11:41:26;;;;;;;4.47;1.85;;;;;;;9.26;87.64;100119.09;6258899;23;20152;-75
2023/01/12 11:44:08;;;;;;;2.63;1.63;;;;;;;9.21;88.12;100114.34;6229252;23;20501;-75
2023/01/12 11:46:51;;;;;;;11.60;2.73;;;;;;;9.22;89.36;100117.88;6222626;23;20378;-75
2023/01/12 11:49:37;;;;;;;9.43;2.22;;;;;;;9.30;89.48;100121.16;6197322;23;20407;-74
2023/01/12 11:52:13;;;;;;;8.77;2.03;;;;;;;9.40;89.31;100104.50;6220076;23;20168;-73
2023/01/12 11:58:31;;;;;;;2.53;1.58;;;;;;;9.38;87.82;100090.41;6219534;23;20180;-75
2023/01/12 12:04:23;;;;;;;2.92;1.90;;;;;;;9.53;87.16;100099.91;6205999;23;20426;-73
2023/01/12 12:07:25;;;;;;;6.13;3.03;;;;;;;9.60;86.34;100116.06;6219715;23;20168;-73
2023/01/12 12:10:20;;;;;;;2.87;1.10;;;;;;;9.58;85.73;100107.38;6220572;23;20377;-71
2023/01/12 12:13:26;;;;;;;3.38;1.33;;;;;;;9.81;84.59;100090.63;6218851;23;20509;-74
2023/01/12 12:16:23;;;;;;;4.60;1.77;;;;;;;9.81;84.45;100096.84;6245711;23;20219;-73
2023/01/12 12:19:20;;;;;;;3.67;2.37;;;;;;;9.72;83.89;100091.91;6219244;23;20824;-73
2023/01/12 12:22:26;;;;;;;3.90;1.50;;;;;;;9.77;82.96;100084.00;6218486;23;20453;-72
2023/01/12 12:25:26;;;;;;;2.20;1.43;;;;;;;9.80;83.48;100095.19;6218248;23;20435;-73
2023/01/12 12:28:37;;;;;;;3.20;1.20;;;;;;;9.75;83.21;100080.66;6219706;23;20792;-73
2023/01/12 12:31:40;;;;;;;2.67;1.40;;;;;;;9.83;82.71;100083.09;6246763;23;20365;-72
2023/01/12 12:34:52;;;;;;;3.27;1.40;;;;;;;9.87;82.05;100085.19;6219915;23;20460;-74
2023/01/12 12:37:46;;;;;;;4.90;1.93;;;;;;;9.99;82.20;100094.25;6246537;23;20381;-74
2023/01/12 12:47:08;;;;;;;5.50;1.33;;;;;;;10.03;80.49;100090.03;6220919;23;20428;-75
2023/01/12 12:50:00;;;;;;;4.13;1.17;;;;;;;10.19;79.49;100082.50;6221404;23;20414;-74
2023/01/12 12:53:35;;;;;;;4.53;1.77;;;;;;;10.21;79.13;100075.00;6249892;23;20374;-74
2023/01/12 12:56:10;;;;;;;5.40;1.30;;;;;;;10.23;79.20;100083.72;6220743;23;20799;-74
2023/01/12 12:58:45;;;;;;;3.10;0.80;;;;;;;10.23;79.17;100084.53;6222018;23;20437;-75
2023/01/12 13:02:04;;;;;;;2.67;0.93;;;;;;;10.19;79.29;100082.50;6248653;23;20379;-73
2023/01/12 13:05:00;;;;;;;3.73;1.40;;;;;;;10.26;79.33;100086.00;6248242;23;20450;-73
2023/01/12 13:07:48;;;;;;;1.87;1.00;;;;;;;10.24;78.75;100088.06;6192845;23;20485;-75
2023/01/12 13:10:43;;;;;;;2.43;0.60;;;;;;;10.23;78.52;100094.53;6221880;23;20502;-73
2023/01/12 13:13:31;;;;;;;3.23;1.03;;;;;;;10.26;78.68;100086.00;6254109;23;20409;-73
2023/01/12 13:16:43;;;;;;;4.50;1.10;;;;;;;10.23;78.18;100084.53;6227924;23;20437;-76
2023/01/12 13:19:37;;;;;;;3.53;0.80;;;;;;;10.25;78.44;100087.88;6188378;23;20413;-74
2023/01/12 13:22:46;;;;;;;3.07;1.00;;;;;;;10.30;78.40;100087.19;6222729;23;20442;-75
2023/01/12 13:25:56;;;;;;;1.97;1.00;;;;;;;10.34;78.27;100080.31;6220183;23;20434;-74
2023/01/12 13:32:41;;;;;;;4.87;1.23;;;;;;;10.40;78.03;100072.16;6219569;23;20473;-74
2023/01/12 13:36:07;;;;;;;2.60;1.13;;;;;;;10.37;78.35;100077.16;6195922;23;20411;-73
2023/01/12 13:39:26;;;;;;;1.63;1.23;;;;;;;10.29;77.93;100077.44;6218062;23;20493;-73
2023/01/12 13:45:56;;;;;;;3.73;1.67;;;;;;;10.44;77.56;100078.75;6101262;23;20820;-74